createdAt,value
2018-02-24T00:00:30.237Z,49.89
2018-02-24T00:03:00.629Z,50.63
2018-02-24T00:05:29.168Z,49.84
2018-02-24T00:07:57.480Z,50.19
2018-02-24T00:10:25.820Z,50.83
2018-02-24T00:12:54.174Z,50.67
2018-02-24T00:15:22.590Z,50.69
2018-02-24T00:17:51.219Z,50.49
2018-02-24T00:20:20.325Z,50.25
2018-02-24T00:22:50.262Z,50.10
2018-02-24T00:25:19.208Z,50.23
2018-02-24T00:27:47.526Z,50.51
2018-02-24T00:30:15.865Z,50.74
2018-02-24T00:32:45.100Z,50.38
2018-02-24T00:35:13.417Z,51.27
2018-02-24T00:37:41.758Z,50.41
2018-02-24T00:40:10.162Z,50.30
2018-02-24T00:42:38.633Z,50.63
2018-02-24T00:45:07.000Z,50.59
2018-02-24T00:47:35.335Z,51.00
2018-02-24T00:50:04.433Z,51.03
2018-02-24T00:52:33.706Z,50.99
2018-02-24T00:55:02.832Z,51.65
2018-02-24T00:57:31.920Z,51.90
2018-02-24T01:00:01.044Z,52.48
2018-02-24T01:02:29.545Z,51.64
2018-02-24T01:04:57.975Z,51.48
2018-02-24T01:07:26.324Z,51.90
2018-02-24T01:09:55.422Z,52.08
2018-02-24T01:12:23.755Z,51.44
2018-02-24T01:14:52.108Z,51.54
2018-02-24T01:17:20.550Z,52.38
2018-02-24T01:19:48.946Z,52.03
2018-02-24T01:22:18.107Z,52.25
2018-02-24T01:24:46.594Z,52.53
2018-02-24T01:27:15.079Z,51.50
2018-02-24T01:29:44.213Z,51.85
2018-02-24T01:32:12.590Z,52.17
2018-02-24T01:34:40.917Z,53.88
2018-02-24T01:37:09.225Z,52.61
2018-02-24T01:39:39.712Z,52.89
2018-02-24T01:42:08.044Z,53.01
2018-02-24T01:44:36.499Z,53.06
2018-02-24T01:47:04.982Z,54.13
2018-02-24T01:49:33.367Z,53.86
2018-02-24T01:52:02.632Z,53.66
2018-02-24T01:54:31.096Z,53.64
2018-02-24T01:56:59.487Z,53.48
2018-02-24T01:59:28.908Z,53.44
2018-02-24T02:01:57.272Z,54.30
2018-02-24T02:04:25.628Z,54.56
2018-02-24T02:06:53.968Z,52.78
2018-02-24T02:09:22.453Z,52.74
2018-02-24T02:11:50.818Z,53.10
2018-02-24T02:14:19.907Z,53.36
2018-02-24T02:16:49.022Z,54.25
2018-02-24T02:19:18.084Z,54.50
2018-02-24T02:21:46.403Z,52.94
2018-02-24T02:24:15.626Z,53.59
2018-02-24T02:26:43.947Z,53.13
2018-02-24T02:29:13.145Z,54.40
2018-02-24T02:31:42.213Z,53.82
2018-02-24T02:34:10.532Z,53.95
2018-02-24T02:36:38.882Z,54.50
2018-02-24T02:39:07.981Z,53.77
2018-02-24T02:41:37.076Z,54.25
2018-02-24T02:44:06.155Z,53.85
2018-02-24T02:46:34.504Z,54.33
2018-02-24T02:49:02.990Z,54.54
2018-02-24T02:51:31.445Z,54.56
2018-02-24T02:53:59.776Z,53.99
2018-02-24T02:56:29.051Z,54.76
2018-02-24T02:58:58.223Z,54.15
2018-02-24T03:01:26.537Z,54.14
2018-02-24T03:03:55.010Z,53.84
2018-02-24T03:06:23.483Z,53.48
2018-02-24T03:08:52.056Z,55.25
2018-02-24T03:11:20.478Z,53.63
2018-02-24T03:13:49.707Z,53.83
2018-02-24T03:16:18.177Z,54.51
2018-02-24T03:18:46.611Z,53.75
2018-02-24T03:21:15.892Z,54.21
2018-02-24T03:23:44.261Z,53.65
2018-02-24T03:26:12.696Z,53.54
2018-02-24T03:28:41.584Z,54.44
2018-02-24T03:31:09.947Z,54.65
2018-02-24T03:33:39.054Z,55.17
2018-02-24T03:36:08.346Z,54.44
2018-02-24T03:38:36.674Z,54.10
2018-02-24T03:41:05.017Z,55.16
2018-02-24T03:43:34.059Z,54.98
2018-02-24T03:46:02.387Z,55.42
2018-02-24T03:48:30.783Z,55.59
2018-02-24T03:50:59.256Z,55.17
2018-02-24T03:53:27.831Z,55.59
2018-02-24T03:55:56.130Z,56.17
2018-02-24T03:58:24.564Z,56.37
2018-02-24T04:00:52.894Z,55.37
2018-02-24T04:03:21.219Z,54.97
2018-02-24T04:05:49.581Z,55.24
2018-02-24T04:08:18.821Z,55.10
2018-02-24T04:10:47.208Z,55.49
2018-02-24T04:13:15.793Z,54.61
2018-02-24T04:15:44.103Z,55.56
2018-02-24T04:18:12.486Z,55.57
2018-02-24T04:20:41.595Z,55.62
2018-02-24T04:23:09.946Z,55.76
2018-02-24T04:25:38.264Z,55.54
2018-02-24T04:28:06.597Z,55.00
2018-02-24T04:30:35.017Z,55.43
2018-02-24T04:33:03.351Z,55.84
2018-02-24T04:35:31.676Z,55.58
2018-02-24T04:38:00.117Z,55.21
2018-02-24T04:40:29.363Z,55.14
2018-02-24T04:42:57.701Z,55.57
2018-02-24T04:45:26.776Z,55.64
2018-02-24T04:47:55.092Z,56.27
2018-02-24T04:50:23.600Z,55.65
2018-02-24T04:52:51.928Z,56.02
2018-02-24T04:55:21.029Z,56.15
2018-02-24T04:57:50.145Z,55.59
2018-02-24T05:00:18.486Z,55.13
2018-02-24T05:02:47.576Z,55.14
2018-02-24T05:05:15.970Z,54.24
2018-02-24T05:07:44.352Z,54.45
2018-02-24T05:10:13.467Z,54.38
2018-02-24T05:12:41.793Z,54.40
2018-02-24T05:15:10.119Z,54.33
2018-02-24T05:17:38.498Z,54.39
2018-02-24T05:20:06.879Z,54.47
2018-02-24T05:22:35.317Z,54.88
2018-02-24T05:25:03.688Z,54.07
2018-02-24T05:27:32.808Z,54.32
2018-02-24T05:30:01.188Z,55.69
2018-02-24T05:32:29.531Z,54.98
2018-02-24T05:34:58.652Z,53.69
2018-02-24T05:37:27.209Z,53.57
2018-02-24T05:39:55.556Z,55.42
2018-02-24T05:42:23.894Z,54.75
2018-02-24T05:44:52.250Z,53.77
2018-02-24T05:47:21.859Z,53.80
2018-02-24T05:49:50.952Z,53.80
2018-02-24T05:52:20.057Z,54.50
2018-02-24T05:54:49.240Z,54.48
2018-02-24T05:57:17.622Z,53.73
2018-02-24T05:59:46.717Z,54.12
2018-02-24T06:02:15.894Z,54.65
2018-02-24T06:04:44.293Z,54.95
2018-02-24T06:07:13.693Z,55.79
2018-02-24T06:09:42.072Z,55.66
2018-02-24T06:12:10.444Z,52.78
2018-02-24T06:14:39.570Z,53.67
2018-02-24T06:17:07.900Z,54.36
2018-02-24T06:19:36.297Z,53.54
2018-02-24T06:22:05.420Z,52.46
2018-02-24T06:24:33.769Z,53.98
2018-02-24T06:27:02.114Z,54.15
2018-02-24T06:29:30.552Z,52.37
2018-02-24T06:31:58.854Z,54.11
2018-02-24T06:34:28.179Z,53.87
2018-02-24T06:36:57.699Z,53.94
2018-02-24T06:39:27.219Z,53.01
2018-02-24T06:41:55.565Z,52.18
2018-02-24T06:44:26.063Z,52.35
2018-02-24T06:46:54.432Z,52.37
2018-02-24T06:49:22.767Z,52.44
2018-02-24T06:51:51.988Z,52.58
2018-02-24T06:54:20.331Z,52.18
2018-02-24T06:56:48.690Z,53.34
2018-02-24T06:59:17.033Z,52.94
2018-02-24T07:01:45.378Z,52.47
2018-02-24T07:04:13.995Z,51.28
2018-02-24T07:06:42.366Z,51.54
2018-02-24T07:09:10.920Z,51.53
2018-02-24T07:11:39.282Z,51.01
2018-02-24T07:14:08.728Z,51.52
2018-02-24T07:16:37.096Z,51.21
2018-02-24T07:19:05.682Z,51.27
2018-02-24T07:21:34.039Z,52.32
2018-02-24T07:24:02.368Z,51.30
2018-02-24T07:26:30.829Z,51.10
2018-02-24T07:28:59.192Z,51.60
2018-02-24T07:31:27.809Z,49.62
2018-02-24T07:33:56.232Z,50.00
2018-02-24T07:36:24.555Z,50.21
2018-02-24T07:38:52.997Z,48.84
2018-02-24T07:41:21.587Z,51.02
2018-02-24T07:43:49.920Z,50.22
2018-02-24T07:46:19.027Z,51.07
2018-02-24T07:48:47.632Z,48.82
2018-02-24T07:51:16.849Z,47.58
2018-02-24T07:53:46.043Z,47.54
2018-02-24T07:56:14.510Z,48.14
2018-02-24T07:58:42.831Z,46.85
2018-02-24T08:01:11.492Z,47.74
2018-02-24T08:03:39.816Z,46.27
2018-02-24T08:06:08.927Z,47.06
2018-02-24T08:08:37.307Z,46.02
2018-02-24T08:11:05.659Z,45.22
2018-02-24T08:13:34.765Z,43.48
2018-02-24T08:16:03.093Z,43.94
2018-02-24T08:18:31.640Z,44.56
2018-02-24T08:21:00.058Z,42.76
2018-02-24T08:23:28.641Z,42.59
2018-02-24T08:25:56.988Z,43.39
2018-02-24T08:28:25.468Z,42.67
2018-02-24T08:30:53.980Z,43.13
2018-02-24T08:33:22.462Z,42.60
2018-02-24T08:35:50.851Z,44.63
2018-02-24T08:38:19.172Z,41.50
2018-02-24T08:40:47.523Z,41.25
2018-02-24T08:43:16.602Z,41.06
2018-02-24T08:45:45.768Z,40.97
2018-02-24T08:48:14.096Z,40.97
2018-02-24T08:50:42.440Z,40.97
2018-02-24T08:53:12.572Z,40.94
2018-02-24T08:55:41.680Z,39.54
2018-02-24T08:58:10.776Z,39.86
2018-02-24T09:00:39.905Z,39.31
2018-02-24T09:03:08.437Z,39.13
2018-02-24T09:05:36.842Z,38.22
2018-02-24T09:08:05.841Z,37.52
2018-02-24T09:10:34.253Z,36.08
2018-02-24T09:13:02.617Z,35.48
2018-02-24T09:15:30.970Z,34.82
2018-02-24T09:17:59.320Z,33.46
2018-02-24T09:20:28.413Z,33.07
2018-02-24T09:22:57.658Z,32.96
2018-02-24T09:25:26.334Z,31.43
2018-02-24T09:27:54.651Z,30.96
2018-02-24T09:30:23.124Z,29.87
2018-02-24T09:32:52.953Z,29.42
2018-02-24T09:35:22.259Z,28.36
2018-02-24T09:37:51.397Z,27.15
2018-02-24T09:40:19.724Z,26.77
2018-02-24T09:42:48.831Z,27.23
2018-02-24T09:45:17.213Z,27.30
2018-02-24T09:47:45.650Z,28.62
2018-02-24T09:50:13.968Z,29.48
2018-02-24T09:52:42.500Z,29.89
2018-02-24T09:55:10.842Z,29.89
2018-02-24T09:57:39.313Z,28.76
2018-02-24T10:00:07.664Z,27.23
2018-02-24T10:02:35.987Z,26.52
2018-02-24T10:05:04.340Z,26.04
2018-02-24T10:07:33.418Z,27.07
2018-02-24T10:10:02.627Z,28.92
2018-02-24T10:12:31.107Z,30.56
2018-02-24T10:15:00.296Z,30.47
2018-02-24T10:17:29.424Z,31.26
2018-02-24T10:19:57.757Z,31.54
2018-02-24T10:22:26.104Z,32.31
2018-02-24T10:24:54.464Z,31.85
2018-02-24T10:27:22.952Z,32.77
2018-02-24T10:29:51.494Z,30.58
2018-02-24T10:32:20.641Z,29.96
2018-02-24T10:34:48.952Z,28.74
2018-02-24T10:37:18.243Z,30.04
2018-02-24T10:39:47.379Z,29.54
2018-02-24T10:42:15.875Z,30.63
2018-02-24T10:44:44.200Z,29.84
2018-02-24T10:47:13.338Z,29.51
2018-02-24T10:49:41.714Z,30.17
2018-02-24T10:52:10.271Z,31.08
2018-02-24T10:54:38.885Z,31.99
2018-02-24T10:57:07.239Z,31.23
2018-02-24T10:59:35.665Z,31.46
2018-02-24T11:02:04.828Z,31.84
2018-02-24T11:04:33.206Z,31.29
2018-02-24T11:07:01.998Z,32.00
2018-02-24T11:09:30.388Z,31.10
2018-02-24T11:11:58.799Z,31.60
2018-02-24T11:14:27.633Z,32.06
2018-02-24T11:16:56.249Z,32.13
2018-02-24T11:19:24.815Z,31.68
2018-02-24T11:21:53.615Z,31.28
2018-02-24T11:24:22.274Z,32.06
2018-02-24T11:26:50.705Z,31.04
2018-02-24T11:29:20.444Z,31.43
2018-02-24T11:31:49.048Z,31.71
2018-02-24T11:34:17.875Z,31.05
2018-02-24T11:36:47.050Z,31.24
2018-02-24T11:39:15.366Z,31.59
2018-02-24T11:41:44.502Z,31.16
2018-02-24T11:44:13.026Z,31.62
2018-02-24T11:46:41.471Z,32.55
2018-02-24T11:49:10.462Z,32.29
2018-02-24T11:51:39.595Z,32.23
2018-02-24T11:54:08.939Z,33.00
2018-02-24T11:56:37.263Z,32.18
2018-02-24T11:59:05.625Z,34.06
2018-02-24T12:01:33.987Z,33.77
2018-02-24T12:04:02.369Z,33.08
2018-02-24T12:06:30.664Z,33.16
2018-02-24T12:08:59.003Z,32.10
2018-02-24T12:11:27.345Z,32.18
2018-02-24T12:13:56.417Z,31.86
2018-02-24T12:16:24.779Z,30.48
2018-02-24T12:18:53.332Z,29.54
2018-02-24T12:21:21.847Z,29.85
2018-02-24T12:23:50.343Z,29.76
2018-02-24T12:26:19.437Z,29.85
2018-02-24T12:28:48.740Z,28.48
2018-02-24T12:31:17.870Z,28.76
2018-02-24T12:33:46.459Z,29.17
2018-02-24T12:36:14.789Z,29.38
2018-02-24T12:38:43.463Z,29.33
2018-02-24T12:41:11.814Z,29.16
2018-02-24T12:43:40.309Z,29.78
2018-02-24T12:46:08.749Z,29.61
2018-02-24T12:48:37.078Z,29.17
2018-02-24T12:51:05.418Z,28.87
2018-02-24T12:53:33.765Z,29.09
2018-02-24T12:56:02.144Z,29.70
2018-02-24T12:58:30.572Z,29.30
2018-02-24T13:00:58.901Z,28.66
2018-02-24T13:03:27.344Z,29.73
2018-02-24T13:05:55.899Z,29.36
2018-02-24T13:08:24.215Z,29.12
2018-02-24T13:10:52.554Z,29.49
2018-02-24T13:13:20.956Z,29.53
2018-02-24T13:15:49.296Z,30.18
2018-02-24T13:18:17.686Z,28.90
2018-02-24T13:20:46.008Z,28.64
2018-02-24T13:23:15.116Z,28.62
2018-02-24T13:25:43.602Z,27.73
2018-02-24T13:28:11.939Z,26.45
2018-02-24T13:30:40.404Z,27.69
2018-02-24T13:33:09.062Z,26.68
2018-02-24T13:35:37.482Z,26.94
2018-02-24T13:38:06.164Z,27.61
2018-02-24T13:40:34.703Z,27.81
2018-02-24T13:43:03.610Z,28.05
2018-02-24T13:45:32.073Z,27.33
2018-02-24T13:48:00.646Z,26.25
2018-02-24T13:50:29.400Z,27.19
2018-02-24T13:52:58.039Z,26.24
2018-02-24T13:55:26.440Z,26.60
2018-02-24T13:57:55.040Z,28.07
2018-02-24T14:00:23.908Z,27.86
2018-02-24T14:02:52.315Z,27.16
2018-02-24T14:05:20.820Z,26.63
2018-02-24T14:07:49.165Z,27.79
2018-02-24T14:10:17.621Z,28.98
2018-02-24T14:12:47.841Z,29.26
2018-02-24T14:15:17.042Z,28.82
2018-02-24T14:17:46.224Z,30.10
2018-02-24T14:20:15.706Z,29.16
2018-02-24T14:22:46.248Z,31.23
2018-02-24T14:25:14.948Z,30.32
2018-02-24T14:27:47.710Z,30.76
2018-02-24T14:30:18.511Z,30.98
2018-02-24T14:32:47.739Z,31.22
2018-02-24T14:35:17.226Z,32.40
2018-02-24T14:37:45.581Z,31.50
2018-02-24T14:40:14.789Z,31.46
2018-02-24T14:42:44.161Z,32.00
2018-02-24T14:45:13.358Z,32.01
2018-02-24T14:47:42.824Z,32.07
2018-02-24T14:50:11.150Z,30.32
2018-02-24T14:52:41.175Z,29.24
2018-02-24T14:55:09.676Z,30.12
2018-02-24T14:57:39.356Z,30.50
2018-02-24T15:00:07.688Z,31.25
2018-02-24T15:02:36.191Z,32.58
2018-02-24T15:05:04.501Z,33.14
2018-02-24T15:07:33.679Z,33.95
2018-02-24T15:10:03.181Z,34.88
2018-02-24T15:12:32.398Z,36.71
2018-02-24T15:15:00.796Z,37.23
2018-02-24T15:17:29.264Z,36.92
2018-02-24T15:19:57.618Z,35.57
2018-02-24T15:22:26.883Z,35.87
2018-02-24T15:24:55.190Z,36.22
2018-02-24T15:27:24.664Z,37.70
2018-02-24T15:29:53.239Z,38.29
2018-02-24T15:32:21.801Z,37.25
2018-02-24T15:34:51.229Z,38.98
2018-02-24T15:37:19.609Z,38.65
2018-02-24T15:39:48.060Z,38.21
2018-02-24T15:42:16.453Z,38.54
2018-02-24T15:44:45.118Z,38.63
2018-02-24T15:47:13.572Z,38.11
2018-02-24T15:49:42.731Z,37.88
2018-02-24T15:52:11.977Z,37.03
2018-02-24T15:54:40.784Z,37.73
2018-02-24T15:57:10.084Z,38.11
2018-02-24T15:59:39.452Z,38.82
2018-02-24T16:02:10.957Z,38.58
2018-02-24T16:04:40.018Z,39.49
2018-02-24T16:07:08.628Z,39.89
2018-02-24T16:09:37.442Z,40.80
2018-02-24T16:12:05.902Z,40.51
2018-02-24T16:14:34.501Z,42.42
2018-02-24T16:17:03.999Z,41.06
2018-02-24T16:19:32.949Z,40.42
2018-02-24T16:22:01.746Z,41.90
2018-02-24T16:24:30.805Z,42.33
2018-02-24T16:26:59.203Z,41.62
2018-02-24T16:29:28.121Z,42.00
2018-02-24T16:31:56.593Z,42.02
2018-02-24T16:34:25.754Z,42.61
2018-02-24T16:36:54.503Z,42.38
2018-02-24T16:39:23.539Z,42.52
2018-02-24T16:41:52.365Z,43.41
2018-02-24T16:44:21.426Z,42.84
2018-02-24T16:46:50.568Z,42.94
2018-02-24T16:49:19.897Z,43.56
2018-02-24T16:51:49.956Z,43.31
2018-02-24T16:54:19.386Z,43.85
2018-02-24T16:56:48.540Z,44.08
2018-02-24T16:59:18.656Z,43.31
2018-02-24T17:01:48.892Z,44.31
2018-02-24T17:04:17.684Z,44.53
2018-02-24T17:06:49.649Z,44.52
2018-02-24T17:09:19.975Z,44.25
2018-02-24T17:11:49.564Z,45.44
2018-02-24T17:14:19.004Z,44.46
2018-02-24T17:16:47.825Z,44.98
2018-02-24T17:19:16.406Z,44.98
2018-02-24T17:21:44.978Z,45.58
2018-02-24T17:24:13.528Z,44.31
2018-02-24T17:26:42.808Z,45.63
2018-02-24T17:29:12.658Z,45.57
2018-02-24T17:31:42.717Z,45.31
2018-02-24T17:34:11.640Z,44.77
2018-02-24T17:36:40.943Z,44.67
2018-02-24T17:39:09.592Z,45.63
2018-02-24T17:41:38.079Z,45.18
2018-02-24T17:44:09.421Z,45.46
2018-02-24T17:46:38.273Z,44.66
2018-02-24T17:49:07.098Z,44.45
2018-02-24T17:51:36.632Z,43.94
2018-02-24T17:54:06.124Z,44.48
2018-02-24T17:56:35.514Z,43.96
2018-02-24T17:59:04.107Z,42.98
2018-02-24T18:01:33.180Z,43.86
2018-02-24T18:04:01.803Z,43.43
2018-02-24T18:06:30.404Z,43.68
2018-02-24T18:08:59.054Z,43.31
2018-02-24T18:11:28.329Z,43.09
2018-02-24T18:13:57.346Z,42.72
2018-02-24T18:16:25.932Z,42.98
2018-02-24T18:18:54.959Z,43.69
2018-02-24T18:21:23.469Z,43.13
2018-02-24T18:23:52.339Z,42.61
2018-02-24T18:26:21.136Z,42.38
2018-02-24T18:28:49.745Z,42.45
2018-02-24T18:31:18.760Z,41.51
2018-02-24T18:33:47.638Z,42.01
2018-02-24T18:36:17.412Z,41.75
2018-02-24T18:38:46.325Z,40.85
2018-02-24T18:41:15.965Z,41.34
2018-02-24T18:43:45.740Z,40.67
2018-02-24T18:46:14.364Z,40.08
2018-02-24T18:48:44.231Z,39.96
2018-02-24T18:51:14.211Z,41.14
2018-02-24T18:53:43.454Z,40.47
2018-02-24T18:56:12.274Z,41.04
2018-02-24T18:58:41.836Z,40.56
2018-02-24T19:01:10.628Z,40.28
2018-02-24T19:03:40.010Z,39.88
2018-02-24T19:06:09.018Z,40.13
2018-02-24T19:08:38.984Z,40.02
2018-02-24T19:11:08.441Z,40.67
2018-02-24T19:13:38.273Z,40.00
2018-02-24T19:16:07.245Z,40.67
2018-02-24T19:18:35.721Z,41.64
2018-02-24T19:21:04.269Z,41.00
2018-02-24T19:23:33.591Z,41.32
2018-02-24T19:26:02.761Z,41.17
2018-02-24T19:28:32.126Z,40.83
2018-02-24T19:31:00.716Z,41.00
2018-02-24T19:33:29.192Z,41.26
2018-02-24T19:35:57.644Z,42.51
2018-02-24T19:38:28.594Z,40.74
2018-02-24T19:40:58.443Z,40.16
2018-02-24T19:43:27.078Z,41.41
2018-02-24T19:45:56.261Z,41.24
2018-02-24T19:48:25.201Z,41.34
2018-02-24T19:50:54.048Z,41.26
2018-02-24T19:53:23.593Z,40.09
2018-02-24T19:55:53.206Z,40.94
2018-02-24T19:58:21.971Z,42.03
2018-02-24T20:00:50.798Z,41.26
2018-02-24T20:03:20.197Z,41.97
2018-02-24T20:05:50.036Z,40.51
2018-02-24T20:08:18.981Z,40.99
2018-02-24T20:10:47.946Z,41.00
2018-02-24T20:13:16.840Z,41.56
2018-02-24T20:15:46.624Z,41.14
2018-02-24T20:18:16.154Z,42.60
2018-02-24T20:20:44.993Z,41.12
2018-02-24T20:23:13.903Z,40.50
2018-02-24T20:25:42.460Z,42.23
2018-02-24T20:28:10.922Z,41.39
2018-02-24T20:30:40.552Z,40.58
2018-02-24T20:33:09.326Z,41.23
2018-02-24T20:35:37.930Z,41.41
2018-02-24T20:38:07.615Z,40.93
2018-02-24T20:40:37.592Z,40.57
2018-02-24T20:43:07.373Z,40.60
2018-02-24T20:45:36.164Z,41.12
2018-02-24T20:48:04.874Z,40.74
2018-02-24T20:50:36.839Z,41.31
2018-02-24T20:53:05.716Z,40.23
2018-02-24T20:55:35.852Z,40.42
2018-02-24T20:58:04.774Z,40.10
2018-02-24T21:00:33.404Z,41.15
2018-02-24T21:03:03.868Z,41.08
2018-02-24T21:05:33.696Z,40.70
2018-02-24T21:08:02.188Z,41.14
2018-02-24T21:10:31.808Z,41.59
2018-02-24T21:13:01.586Z,41.80
2018-02-24T21:15:30.203Z,41.76
2018-02-24T21:18:00.096Z,41.34
2018-02-24T21:20:28.779Z,40.83
2018-02-24T21:22:57.955Z,39.90
2018-02-24T21:25:27.535Z,41.90
2018-02-24T21:27:56.803Z,42.04
2018-02-24T21:30:25.562Z,41.84
2018-02-24T21:32:54.174Z,40.96
2018-02-24T21:35:23.154Z,40.92
2018-02-24T21:37:51.757Z,40.71
2018-02-24T21:40:21.678Z,41.28
2018-02-24T21:42:50.652Z,41.35
2018-02-24T21:45:20.463Z,41.96
2018-02-24T21:47:49.705Z,42.74
2018-02-24T21:50:19.686Z,42.16
2018-02-24T21:52:50.207Z,40.95
2018-02-24T21:55:19.195Z,41.51
2018-02-24T21:57:49.623Z,41.13
2018-02-24T22:00:18.067Z,43.01
2018-02-24T22:02:47.084Z,41.79
2018-02-24T22:05:15.809Z,43.47
2018-02-24T22:07:44.980Z,42.54
2018-02-24T22:10:13.896Z,41.63
2018-02-24T22:12:42.490Z,42.25
2018-02-24T22:15:11.498Z,42.42
2018-02-24T22:17:40.952Z,41.97
2018-02-24T22:20:11.408Z,41.74
2018-02-24T22:22:41.390Z,41.69
2018-02-24T22:25:10.020Z,41.50
2018-02-24T22:27:39.683Z,42.67
2018-02-24T22:30:10.012Z,43.29
2018-02-24T22:32:39.482Z,43.08
2018-02-24T22:35:08.039Z,43.21
2018-02-24T22:37:37.746Z,43.37
2018-02-24T22:40:06.576Z,42.60
2018-02-24T22:42:36.090Z,43.42
2018-02-24T22:45:04.988Z,42.33
2018-02-24T22:47:39.664Z,42.34
2018-02-24T22:50:08.331Z,43.61
2018-02-24T22:52:37.254Z,43.14
2018-02-24T22:55:06.569Z,43.14
2018-02-24T22:57:35.463Z,43.10
2018-02-24T23:00:04.059Z,43.08
2018-02-24T23:02:33.042Z,43.18
2018-02-24T23:05:01.822Z,43.52
2018-02-24T23:07:30.710Z,44.51
2018-02-24T23:10:00.039Z,43.10
2018-02-24T23:12:28.998Z,45.14
2018-02-24T23:14:58.010Z,43.68
2018-02-24T23:17:29.430Z,44.24
2018-02-24T23:19:59.923Z,43.81
2018-02-24T23:22:31.348Z,44.31
2018-02-24T23:25:00.515Z,42.91
2018-02-24T23:27:29.465Z,43.74
2018-02-24T23:29:59.145Z,42.79
2018-02-24T23:32:28.448Z,43.07
2018-02-24T23:34:57.614Z,42.95
2018-02-24T23:37:25.943Z,43.29
2018-02-24T23:39:55.127Z,43.17
2018-02-24T23:42:24.519Z,42.98
2018-02-24T23:44:53.246Z,42.83
2018-02-24T23:47:21.663Z,43.21
2018-02-24T23:49:50.074Z,43.25
2018-02-24T23:52:18.836Z,42.70
2018-02-24T23:54:48.172Z,43.25
2018-02-24T23:57:16.714Z,43.07
2018-02-24T23:59:46.092Z,42.95
